<?xml version='1.0' encoding='UTF-8'?>
<gpx version="1.1" creator="https://www.komoot.de" xmlns="http://www.topografix.com/GPX/1/1" xmlns:xsi="http://www.w3.org/2001/XMLSchema-instance" xsi:schemaLocation="http://www.topografix.com/GPX/1/1 http://www.topografix.com/GPX/1/1/gpx.xsd">
  <metadata>
    <name>Lüdingshausen PW</name>
    <author>
      <link href="https://www.komoot.de">
        <text>komoot</text>
        <type>text/html</type>
      </link>
    </author>
  </metadata>
  <trk>
    <name>Lüdingshausen PW</name>
    <trkseg>
      <trkpt lat="51.776340" lon="7.441106">
        <ele>54.175907</ele>
        <time>2023-01-17T09:13:06.121Z</time>
      </trkpt>
      <trkpt lat="51.776329" lon="7.441339">
        <ele>54.175907</ele>
        <time>2023-01-17T09:13:20.798Z</time>
      </trkpt>
      <trkpt lat="51.776317" lon="7.441570">
        <ele>54.175907</ele>
        <time>2023-01-17T09:13:35.448Z</time>
      </trkpt>
      <trkpt lat="51.776320" lon="7.441832">
        <ele>54.175907</ele>
        <time>2023-01-17T09:13:51.970Z</time>
      </trkpt>
      <trkpt lat="51.776322" lon="7.441950">
        <ele>54.175907</ele>
        <time>2023-01-17T09:13:59.443Z</time>
      </trkpt>
      <trkpt lat="51.776325" lon="7.442137">
        <ele>54.175907</ele>
        <time>2023-01-17T09:14:11.196Z</time>
      </trkpt>
      <trkpt lat="51.776326" lon="7.442178">
        <ele>54.175907</ele>
        <time>2023-01-17T09:14:13.842Z</time>
      </trkpt>
      <trkpt lat="51.776890" lon="7.442351">
        <ele>53.960894</ele>
        <time>2023-01-17T09:15:12.310Z</time>
      </trkpt>
      <trkpt lat="51.776963" lon="7.442556">
        <ele>53.868090</ele>
        <time>2023-01-17T09:15:27.244Z</time>
      </trkpt>
      <trkpt lat="51.776894" lon="7.442871">
        <ele>53.736981</ele>
        <time>2023-01-17T09:15:48.276Z</time>
      </trkpt>
      <trkpt lat="51.776830" lon="7.442958">
        <ele>53.683949</ele>
        <time>2023-01-17T09:15:56.776Z</time>
      </trkpt>
      <trkpt lat="51.776758" lon="7.443293">
        <ele>53.544805</ele>
        <time>2023-01-17T09:16:19.183Z</time>
      </trkpt>
      <trkpt lat="51.776742" lon="7.443321">
        <ele>53.529850</ele>
        <time>2023-01-17T09:16:21.540Z</time>
      </trkpt>
      <trkpt lat="51.776547" lon="7.443669">
        <ele>53.345637</ele>
        <time>2023-01-17T09:16:51.008Z</time>
      </trkpt>
      <trkpt lat="51.776199" lon="7.443932">
        <ele>53.102022</ele>
        <time>2023-01-17T09:17:29.662Z</time>
      </trkpt>
      <trkpt lat="51.776089" lon="7.443916">
        <ele>53.032335</ele>
        <time>2023-01-17T09:17:40.794Z</time>
      </trkpt>
      <trkpt lat="51.775961" lon="7.443824">
        <ele>52.952832</ele>
        <time>2023-01-17T09:17:54.798Z</time>
      </trkpt>
      <trkpt lat="51.775871" lon="7.443687">
        <ele>52.882666</ele>
        <time>2023-01-17T09:18:07.221Z</time>
      </trkpt>
      <trkpt lat="51.775765" lon="7.443238">
        <ele>52.713912</ele>
        <time>2023-01-17T09:18:36.969Z</time>
      </trkpt>
      <trkpt lat="51.775795" lon="7.442937">
        <ele>52.606853</ele>
        <time>2023-01-17T09:18:55.849Z</time>
      </trkpt>
      <trkpt lat="51.775927" lon="7.442729">
        <ele>52.502226</ele>
        <time>2023-01-17T09:19:14.506Z</time>
      </trkpt>
      <trkpt lat="51.775991" lon="7.442431">
        <ele>52.391458</ele>
        <time>2023-01-17T09:19:34.256Z</time>
      </trkpt>
      <trkpt lat="51.775865" lon="7.442314">
        <ele>52.308988</ele>
        <time>2023-01-17T09:19:49.095Z</time>
      </trkpt>
      <trkpt lat="51.775452" lon="7.441699">
        <ele>51.972314</ele>
        <time>2023-01-17T09:20:46.515Z</time>
      </trkpt>
      <trkpt lat="51.775313" lon="7.441474">
        <ele>51.778001</ele>
        <time>2023-01-17T09:21:06.695Z</time>
      </trkpt>
      <trkpt lat="51.775261" lon="7.441395">
        <ele>51.707509</ele>
        <time>2023-01-17T09:21:14.013Z</time>
      </trkpt>
      <trkpt lat="51.775225" lon="7.441518">
        <ele>51.624352</ele>
        <time>2023-01-17T09:21:22.650Z</time>
      </trkpt>
      <trkpt lat="51.775150" lon="7.441483">
        <ele>51.547247</ele>
        <time>2023-01-17T09:21:30.685Z</time>
      </trkpt>
      <trkpt lat="51.774390" lon="7.441010">
        <ele>50.742844</ele>
        <time>2023-01-17T09:22:54.074Z</time>
      </trkpt>
      <trkpt lat="51.773645" lon="7.440512">
        <ele>50.273595</ele>
        <time>2023-01-17T09:24:16.223Z</time>
      </trkpt>
      <trkpt lat="51.773587" lon="7.440431">
        <ele>50.282845</ele>
        <time>2023-01-17T09:24:23.911Z</time>
      </trkpt>
      <trkpt lat="51.773475" lon="7.439733">
        <ele>50.336690</ele>
        <time>2023-01-17T09:25:08.662Z</time>
      </trkpt>
      <trkpt lat="51.773363" lon="7.439323">
        <ele>50.370157</ele>
        <time>2023-01-17T09:25:36.800Z</time>
      </trkpt>
      <trkpt lat="51.773169" lon="7.438897">
        <ele>50.409654</ele>
        <time>2023-01-17T09:26:10.380Z</time>
      </trkpt>
      <trkpt lat="51.773030" lon="7.438715">
        <ele>50.431243</ele>
        <time>2023-01-17T09:26:28.735Z</time>
      </trkpt>
      <trkpt lat="51.772894" lon="7.438594">
        <ele>50.449978</ele>
        <time>2023-01-17T09:26:44.736Z</time>
      </trkpt>
      <trkpt lat="51.772692" lon="7.438495">
        <ele>50.575598</ele>
        <time>2023-01-17T09:27:06.418Z</time>
      </trkpt>
      <trkpt lat="51.772449" lon="7.438489">
        <ele>50.748843</ele>
        <time>2023-01-17T09:27:31.493Z</time>
      </trkpt>
      <trkpt lat="51.772416" lon="7.438507">
        <ele>50.773672</ele>
        <time>2023-01-17T09:27:35.069Z</time>
      </trkpt>
      <trkpt lat="51.772361" lon="7.438537">
        <ele>50.815052</ele>
        <time>2023-01-17T09:27:40.915Z</time>
      </trkpt>
      <trkpt lat="51.772169" lon="7.438696">
        <ele>50.968845</ele>
        <time>2023-01-17T09:28:03.067Z</time>
      </trkpt>
      <trkpt lat="51.771991" lon="7.438938">
        <ele>51.134664</ele>
        <time>2023-01-17T09:28:26.723Z</time>
      </trkpt>
      <trkpt lat="51.771899" lon="7.439117">
        <ele>51.237308</ele>
        <time>2023-01-17T09:28:41.560Z</time>
      </trkpt>
      <trkpt lat="51.771477" lon="7.438891">
        <ele>51.554223</ele>
        <time>2023-01-17T09:29:27.032Z</time>
      </trkpt>
      <trkpt lat="51.771277" lon="7.439006">
        <ele>51.705551</ele>
        <time>2023-01-17T09:29:49.122Z</time>
      </trkpt>
      <trkpt lat="51.771072" lon="7.439125">
        <ele>51.836739</ele>
        <time>2023-01-17T09:30:11.496Z</time>
      </trkpt>
      <trkpt lat="51.770873" lon="7.439158">
        <ele>51.951551</ele>
        <time>2023-01-17T09:30:32.196Z</time>
      </trkpt>
      <trkpt lat="51.770755" lon="7.439216">
        <ele>52.022338</ele>
        <time>2023-01-17T09:30:44.768Z</time>
      </trkpt>
      <trkpt lat="51.770689" lon="7.439296">
        <ele>52.069689</ele>
        <time>2023-01-17T09:30:53.147Z</time>
      </trkpt>
      <trkpt lat="51.770617" lon="7.439881">
        <ele>52.281523</ele>
        <time>2023-01-17T09:31:30.873Z</time>
      </trkpt>
      <trkpt lat="51.770414" lon="7.439858">
        <ele>52.398317</ele>
        <time>2023-01-17T09:31:51.438Z</time>
      </trkpt>
      <trkpt lat="51.770528" lon="7.440223">
        <ele>52.543524</ele>
        <time>2023-01-17T09:32:17.184Z</time>
      </trkpt>
      <trkpt lat="51.770556" lon="7.440235">
        <ele>52.560150</ele>
        <time>2023-01-17T09:32:20.103Z</time>
      </trkpt>
      <trkpt lat="51.770642" lon="7.440263">
        <ele>52.610500</ele>
        <time>2023-01-17T09:32:28.833Z</time>
      </trkpt>
      <trkpt lat="51.770773" lon="7.440300">
        <ele>52.686824</ele>
        <time>2023-01-17T09:32:42.371Z</time>
      </trkpt>
      <trkpt lat="51.770942" lon="7.440439">
        <ele>52.802056</ele>
        <time>2023-01-17T09:33:01.724Z</time>
      </trkpt>
      <trkpt lat="51.771253" lon="7.440605">
        <ele>53.036036</ele>
        <time>2023-01-17T09:33:35.092Z</time>
      </trkpt>
      <trkpt lat="51.771406" lon="7.440629">
        <ele>53.145851</ele>
        <time>2023-01-17T09:33:50.849Z</time>
      </trkpt>
      <trkpt lat="51.771540" lon="7.440613">
        <ele>53.241840</ele>
        <time>2023-01-17T09:34:04.709Z</time>
      </trkpt>
      <trkpt lat="51.771707" lon="7.440607">
        <ele>53.361172</ele>
        <time>2023-01-17T09:34:21.941Z</time>
      </trkpt>
      <trkpt lat="51.771868" lon="7.440601">
        <ele>53.476219</ele>
        <time>2023-01-17T09:34:38.707Z</time>
      </trkpt>
      <trkpt lat="51.771924" lon="7.440629">
        <ele>53.518095</ele>
        <time>2023-01-17T09:34:44.755Z</time>
      </trkpt>
      <trkpt lat="51.771971" lon="7.440835">
        <ele>53.615152</ele>
        <time>2023-01-17T09:34:58.635Z</time>
      </trkpt>
      <trkpt lat="51.771995" lon="7.440976">
        <ele>53.679797</ele>
        <time>2023-01-17T09:35:07.974Z</time>
      </trkpt>
      <trkpt lat="51.771995" lon="7.441067">
        <ele>53.720025</ele>
        <time>2023-01-17T09:35:13.794Z</time>
      </trkpt>
      <trkpt lat="51.771830" lon="7.441565">
        <ele>53.969741</ele>
        <time>2023-01-17T09:35:49.565Z</time>
      </trkpt>
      <trkpt lat="51.771822" lon="7.441591">
        <ele>53.982577</ele>
        <time>2023-01-17T09:35:51.408Z</time>
      </trkpt>
      <trkpt lat="51.771672" lon="7.442047">
        <ele>54.212805</ele>
        <time>2023-01-17T09:36:24.203Z</time>
      </trkpt>
      <trkpt lat="51.771627" lon="7.442262">
        <ele>54.314379</ele>
        <time>2023-01-17T09:36:38.623Z</time>
      </trkpt>
      <trkpt lat="51.771603" lon="7.442397">
        <ele>54.377240</ele>
        <time>2023-01-17T09:36:47.547Z</time>
      </trkpt>
      <trkpt lat="51.771521" lon="7.442554">
        <ele>54.469185</ele>
        <time>2023-01-17T09:37:00.829Z</time>
      </trkpt>
      <trkpt lat="51.771410" lon="7.442500">
        <ele>54.553022</ele>
        <time>2023-01-17T09:37:12.889Z</time>
      </trkpt>
      <trkpt lat="51.771292" lon="7.442502">
        <ele>54.638368</ele>
        <time>2023-01-17T09:37:25.120Z</time>
      </trkpt>
      <trkpt lat="51.771259" lon="7.442507">
        <ele>54.662339</ele>
        <time>2023-01-17T09:37:28.482Z</time>
      </trkpt>
      <trkpt lat="51.771259" lon="7.442710">
        <ele>54.753189</ele>
        <time>2023-01-17T09:37:41.684Z</time>
      </trkpt>
      <trkpt lat="51.771114" lon="7.442738">
        <ele>54.858803</ele>
        <time>2023-01-17T09:37:56.732Z</time>
      </trkpt>
      <trkpt lat="51.770966" lon="7.442769">
        <ele>54.966737</ele>
        <time>2023-01-17T09:38:12.200Z</time>
      </trkpt>
      <trkpt lat="51.770841" lon="7.442793">
        <ele>55.057776</ele>
        <time>2023-01-17T09:38:25.124Z</time>
      </trkpt>
      <trkpt lat="51.770768" lon="7.442888">
        <ele>55.125563</ele>
        <time>2023-01-17T09:38:34.633Z</time>
      </trkpt>
      <trkpt lat="51.770768" lon="7.442888">
        <ele>55.125563</ele>
        <time>2023-01-17T09:38:34.653Z</time>
      </trkpt>
      <trkpt lat="51.770768" lon="7.442888">
        <ele>55.125563</ele>
        <time>2023-01-17T09:38:34.674Z</time>
      </trkpt>
      <trkpt lat="51.770841" lon="7.442793">
        <ele>55.193350</ele>
        <time>2023-01-17T09:38:44.298Z</time>
      </trkpt>
      <trkpt lat="51.770966" lon="7.442769">
        <ele>55.284389</ele>
        <time>2023-01-17T09:38:57.184Z</time>
      </trkpt>
      <trkpt lat="51.771114" lon="7.442738">
        <ele>55.341760</ele>
        <time>2023-01-17T09:39:12.094Z</time>
      </trkpt>
      <trkpt lat="51.771110" lon="7.442895">
        <ele>55.316103</ele>
        <time>2023-01-17T09:39:21.938Z</time>
      </trkpt>
      <trkpt lat="51.771103" lon="7.443138">
        <ele>55.276381</ele>
        <time>2023-01-17T09:39:37.049Z</time>
      </trkpt>
      <trkpt lat="51.771103" lon="7.443168">
        <ele>55.271483</ele>
        <time>2023-01-17T09:39:38.921Z</time>
      </trkpt>
      <trkpt lat="51.771212" lon="7.443229">
        <ele>55.241045</ele>
        <time>2023-01-17T09:39:50.495Z</time>
      </trkpt>
      <trkpt lat="51.771416" lon="7.443251">
        <ele>55.187095</ele>
        <time>2023-01-17T09:40:10.970Z</time>
      </trkpt>
      <trkpt lat="51.771499" lon="7.443224">
        <ele>55.164755</ele>
        <time>2023-01-17T09:40:19.540Z</time>
      </trkpt>
      <trkpt lat="51.771538" lon="7.443215">
        <ele>55.154359</ele>
        <time>2023-01-17T09:40:23.518Z</time>
      </trkpt>
      <trkpt lat="51.771596" lon="7.443315">
        <ele>55.131980</ele>
        <time>2023-01-17T09:40:32.055Z</time>
      </trkpt>
      <trkpt lat="51.771752" lon="7.443077">
        <ele>55.075370</ele>
        <time>2023-01-17T09:40:53.775Z</time>
      </trkpt>
      <trkpt lat="51.771741" lon="7.443050">
        <ele>55.070091</ele>
        <time>2023-01-17T09:40:55.767Z</time>
      </trkpt>
      <trkpt lat="51.771676" lon="7.442900">
        <ele>55.040191</ele>
        <time>2023-01-17T09:41:07.221Z</time>
      </trkpt>
      <trkpt lat="51.771652" lon="7.442846">
        <ele>55.029335</ele>
        <time>2023-01-17T09:41:11.370Z</time>
      </trkpt>
      <trkpt lat="51.771521" lon="7.442554">
        <ele>54.970444</ele>
        <time>2023-01-17T09:41:33.913Z</time>
      </trkpt>
      <trkpt lat="51.771603" lon="7.442397">
        <ele>54.936897</ele>
        <time>2023-01-17T09:41:46.723Z</time>
      </trkpt>
      <trkpt lat="51.772154" lon="7.442469">
        <ele>54.665469</ele>
        <time>2023-01-17T09:42:42.856Z</time>
      </trkpt>
      <trkpt lat="51.772461" lon="7.442457">
        <ele>54.470928</ele>
        <time>2023-01-17T09:43:14.130Z</time>
      </trkpt>
      <trkpt lat="51.772622" lon="7.442479">
        <ele>54.368571</ele>
        <time>2023-01-17T09:43:30.668Z</time>
      </trkpt>
      <trkpt lat="51.772843" lon="7.442628">
        <ele>54.216873</ele>
        <time>2023-01-17T09:43:54.843Z</time>
      </trkpt>
      <trkpt lat="51.773208" lon="7.443047">
        <ele>53.933249</ele>
        <time>2023-01-17T09:44:40.079Z</time>
      </trkpt>
      <trkpt lat="51.773380" lon="7.443188">
        <ele>53.811071</ele>
        <time>2023-01-17T09:44:59.587Z</time>
      </trkpt>
      <trkpt lat="51.773539" lon="7.443258">
        <ele>53.712802</ele>
        <time>2023-01-17T09:45:16.275Z</time>
      </trkpt>
      <trkpt lat="51.773865" lon="7.443330">
        <ele>53.541332</ele>
        <time>2023-01-17T09:45:49.542Z</time>
      </trkpt>
      <trkpt lat="51.773940" lon="7.443388">
        <ele>53.498002</ele>
        <time>2023-01-17T09:45:57.970Z</time>
      </trkpt>
      <trkpt lat="51.774327" lon="7.444033">
        <ele>53.208288</ele>
        <time>2023-01-17T09:46:54.189Z</time>
      </trkpt>
      <trkpt lat="51.774401" lon="7.444119">
        <ele>53.160788</ele>
        <time>2023-01-17T09:47:03.437Z</time>
      </trkpt>
      <trkpt lat="51.774543" lon="7.444201">
        <ele>53.082204</ele>
        <time>2023-01-17T09:47:18.708Z</time>
      </trkpt>
      <trkpt lat="51.774679" lon="7.444244">
        <ele>53.009985</ele>
        <time>2023-01-17T09:47:32.750Z</time>
      </trkpt>
      <trkpt lat="51.775043" lon="7.444223">
        <ele>52.820169</ele>
        <time>2023-01-17T09:48:09.583Z</time>
      </trkpt>
      <trkpt lat="51.775255" lon="7.444312">
        <ele>52.731187</ele>
        <time>2023-01-17T09:48:31.689Z</time>
      </trkpt>
      <trkpt lat="51.775425" lon="7.444512">
        <ele>52.649785</ele>
        <time>2023-01-17T09:48:53.000Z</time>
      </trkpt>
      <trkpt lat="51.775845" lon="7.445179">
        <ele>52.421833</ele>
        <time>2023-01-17T09:49:52.602Z</time>
      </trkpt>
      <trkpt lat="51.776572" lon="7.446502">
        <ele>52.140525</ele>
        <time>2023-01-17T09:51:42.792Z</time>
      </trkpt>
      <trkpt lat="51.776795" lon="7.446894">
        <ele>52.178873</ele>
        <time>2023-01-17T09:52:15.795Z</time>
      </trkpt>
      <trkpt lat="51.776979" lon="7.447069">
        <ele>52.203722</ele>
        <time>2023-01-17T09:52:37.344Z</time>
      </trkpt>
      <trkpt lat="51.777224" lon="7.447187">
        <ele>52.233477</ele>
        <time>2023-01-17T09:53:03.192Z</time>
      </trkpt>
      <trkpt lat="51.777825" lon="7.447185">
        <ele>52.303428</ele>
        <time>2023-01-17T09:54:03.983Z</time>
      </trkpt>
      <trkpt lat="51.778289" lon="7.447230">
        <ele>52.463192</ele>
        <time>2023-01-17T09:54:50.991Z</time>
      </trkpt>
      <trkpt lat="51.778837" lon="7.447187">
        <ele>52.693217</ele>
        <time>2023-01-17T09:55:46.712Z</time>
      </trkpt>
      <trkpt lat="51.779308" lon="7.447353">
        <ele>52.895329</ele>
        <time>2023-01-17T09:56:35.915Z</time>
      </trkpt>
      <trkpt lat="51.779534" lon="7.447380">
        <ele>52.990341</ele>
        <time>2023-01-17T09:56:59.034Z</time>
      </trkpt>
      <trkpt lat="51.779644" lon="7.447281">
        <ele>53.043127</ele>
        <time>2023-01-17T09:57:11.804Z</time>
      </trkpt>
      <trkpt lat="51.779809" lon="7.446880">
        <ele>53.097075</ele>
        <time>2023-01-17T09:57:42.064Z</time>
      </trkpt>
      <trkpt lat="51.779867" lon="7.446792">
        <ele>53.106030</ele>
        <time>2023-01-17T09:57:50.158Z</time>
      </trkpt>
      <trkpt lat="51.779892" lon="7.446797">
        <ele>53.108866</ele>
        <time>2023-01-17T09:57:52.747Z</time>
      </trkpt>
      <trkpt lat="51.779996" lon="7.446911">
        <ele>53.123011</ele>
        <time>2023-01-17T09:58:05.603Z</time>
      </trkpt>
      <trkpt lat="51.780322" lon="7.447256">
        <ele>53.166873</ele>
        <time>2023-01-17T09:58:45.144Z</time>
      </trkpt>
      <trkpt lat="51.780450" lon="7.447119">
        <ele>53.184154</ele>
        <time>2023-01-17T09:59:00.523Z</time>
      </trkpt>
      <trkpt lat="51.780980" lon="7.447192">
        <ele>53.244030</ele>
        <time>2023-01-17T09:59:53.762Z</time>
      </trkpt>
      <trkpt lat="51.780893" lon="7.448255">
        <ele>53.064469</ele>
        <time>2023-01-17T10:01:00.555Z</time>
      </trkpt>
      <trkpt lat="51.780805" lon="7.448393">
        <ele>53.000659</ele>
        <time>2023-01-17T10:01:12.826Z</time>
      </trkpt>
      <trkpt lat="51.780880" lon="7.448433">
        <ele>52.959558</ele>
        <time>2023-01-17T10:01:20.849Z</time>
      </trkpt>
      <trkpt lat="51.781166" lon="7.448634">
        <ele>52.797255</ele>
        <time>2023-01-17T10:01:52.505Z</time>
      </trkpt>
      <trkpt lat="51.781191" lon="7.448654">
        <ele>52.782738</ele>
        <time>2023-01-17T10:01:55.333Z</time>
      </trkpt>
      <trkpt lat="51.781549" lon="7.448145">
        <ele>52.534606</ele>
        <time>2023-01-17T10:02:43.710Z</time>
      </trkpt>
      <trkpt lat="51.782105" lon="7.447451">
        <ele>52.238808</ele>
        <time>2023-01-17T10:03:54.949Z</time>
      </trkpt>
      <trkpt lat="51.782311" lon="7.447036">
        <ele>52.138490</ele>
        <time>2023-01-17T10:04:28.360Z</time>
      </trkpt>
      <trkpt lat="51.782471" lon="7.446203">
        <ele>51.974040</ele>
        <time>2023-01-17T10:05:22.721Z</time>
      </trkpt>
      <trkpt lat="51.782508" lon="7.444693">
        <ele>51.871504</ele>
        <time>2023-01-17T10:06:56.495Z</time>
      </trkpt>
      <trkpt lat="51.782561" lon="7.444032">
        <ele>51.974682</ele>
        <time>2023-01-17T10:07:38.137Z</time>
      </trkpt>
      <trkpt lat="51.782667" lon="7.443603">
        <ele>52.046192</ele>
        <time>2023-01-17T10:08:07.075Z</time>
      </trkpt>
      <trkpt lat="51.782896" lon="7.443320">
        <ele>52.118321</ele>
        <time>2023-01-17T10:08:36.269Z</time>
      </trkpt>
      <trkpt lat="51.783384" lon="7.443285">
        <ele>52.245771</ele>
        <time>2023-01-17T10:09:25.711Z</time>
      </trkpt>
      <trkpt lat="51.783533" lon="7.443062">
        <ele>52.515040</ele>
        <time>2023-01-17T10:09:46.234Z</time>
      </trkpt>
      <trkpt lat="51.783554" lon="7.442702">
        <ele>52.811677</ele>
        <time>2023-01-17T10:10:08.812Z</time>
      </trkpt>
      <trkpt lat="51.783607" lon="7.442444">
        <ele>53.034691</ele>
        <time>2023-01-17T10:10:25.779Z</time>
      </trkpt>
      <trkpt lat="51.783745" lon="7.442058">
        <ele>53.400420</ele>
        <time>2023-01-17T10:10:54.592Z</time>
      </trkpt>
      <trkpt lat="51.783746" lon="7.441827">
        <ele>53.589925</ele>
        <time>2023-01-17T10:11:09.981Z</time>
      </trkpt>
      <trkpt lat="51.783639" lon="7.441780">
        <ele>53.736960</ele>
        <time>2023-01-17T10:11:21.739Z</time>
      </trkpt>
      <trkpt lat="51.783411" lon="7.441998">
        <ele>54.088235</ele>
        <time>2023-01-17T10:11:50.342Z</time>
      </trkpt>
      <trkpt lat="51.782929" lon="7.442681">
        <ele>55.059225</ele>
        <time>2023-01-17T10:12:59.240Z</time>
      </trkpt>
      <trkpt lat="51.782853" lon="7.442676">
        <ele>55.198990</ele>
        <time>2023-01-17T10:13:07.396Z</time>
      </trkpt>
      <trkpt lat="51.782702" lon="7.442471">
        <ele>55.561329</ele>
        <time>2023-01-17T10:13:28.345Z</time>
      </trkpt>
      <trkpt lat="51.782672" lon="7.442352">
        <ele>55.707403</ele>
        <time>2023-01-17T10:13:37.152Z</time>
      </trkpt>
      <trkpt lat="51.782612" lon="7.441793">
        <ele>56.352343</ele>
        <time>2023-01-17T10:14:14.750Z</time>
      </trkpt>
      <trkpt lat="51.782564" lon="7.441841">
        <ele>56.456056</ele>
        <time>2023-01-17T10:14:20.862Z</time>
      </trkpt>
      <trkpt lat="51.781535" lon="7.442851">
        <ele>57.785497</ele>
        <time>2023-01-17T10:16:28.899Z</time>
      </trkpt>
      <trkpt lat="51.781090" lon="7.443398">
        <ele>57.585315</ele>
        <time>2023-01-17T10:17:25.630Z</time>
      </trkpt>
      <trkpt lat="51.780515" lon="7.443903">
        <ele>57.350994</ele>
        <time>2023-01-17T10:18:32.888Z</time>
      </trkpt>
      <trkpt lat="51.779964" lon="7.444658">
        <ele>56.572484</ele>
        <time>2023-01-17T10:19:47.351Z</time>
      </trkpt>
      <trkpt lat="51.779594" lon="7.444811">
        <ele>56.067491</ele>
        <time>2023-01-17T10:20:26.725Z</time>
      </trkpt>
      <trkpt lat="51.779456" lon="7.444806">
        <ele>55.884973</ele>
        <time>2023-01-17T10:20:40.999Z</time>
      </trkpt>
      <trkpt lat="51.779240" lon="7.444796">
        <ele>55.599248</ele>
        <time>2023-01-17T10:21:03.266Z</time>
      </trkpt>
      <trkpt lat="51.779087" lon="7.444491">
        <ele>55.278025</ele>
        <time>2023-01-17T10:21:28.382Z</time>
      </trkpt>
      <trkpt lat="51.778890" lon="7.444173">
        <ele>54.909882</ele>
        <time>2023-01-17T10:21:56.971Z</time>
      </trkpt>
      <trkpt lat="51.778583" lon="7.443525">
        <ele>54.736279</ele>
        <time>2023-01-17T10:22:48.248Z</time>
      </trkpt>
      <trkpt lat="51.778104" lon="7.442703">
        <ele>54.498922</ele>
        <time>2023-01-17T10:23:58.719Z</time>
      </trkpt>
      <trkpt lat="51.777597" lon="7.442261">
        <ele>54.303211</ele>
        <time>2023-01-17T10:24:57.001Z</time>
      </trkpt>
      <trkpt lat="51.777132" lon="7.442002">
        <ele>54.296049</ele>
        <time>2023-01-17T10:25:46.523Z</time>
      </trkpt>
      <trkpt lat="51.776773" lon="7.441803">
        <ele>54.296049</ele>
        <time>2023-01-17T10:26:24.740Z</time>
      </trkpt>
      <trkpt lat="51.776485" lon="7.441656">
        <ele>54.296049</ele>
        <time>2023-01-17T10:26:55.221Z</time>
      </trkpt>
      <trkpt lat="51.776317" lon="7.441570">
        <ele>54.296049</ele>
        <time>2023-01-17T10:27:13.032Z</time>
      </trkpt>
      <trkpt lat="51.776329" lon="7.441339">
        <ele>54.296049</ele>
        <time>2023-01-17T10:27:27.546Z</time>
      </trkpt>
      <trkpt lat="51.776340" lon="7.441106">
        <ele>54.296049</ele>
        <time>2023-01-17T10:27:42.166Z</time>
      </trkpt>
      <trkpt lat="51.776352" lon="7.440903">
        <ele>54.296049</ele>
        <time>2023-01-17T10:27:54.829Z</time>
      </trkpt>
    </trkseg>
  </trk>
</gpx>